createdAt,value
2022-09-02T00:04:31.879Z,6.90
2022-09-02T00:14:40.017Z,5.00
2022-09-02T00:24:47.025Z,5.80
2022-09-02T00:34:56.281Z,4.10
2022-09-02T00:45:05.082Z,3.60
2022-09-02T00:55:16.019Z,4.20
2022-09-02T01:05:25.395Z,4.10
2022-09-02T01:25:38.609Z,4.50
2022-09-02T01:35:46.500Z,3.70
2022-09-02T01:45:57.155Z,3.40
2022-09-02T01:56:03.305Z,3.30
2022-09-02T02:06:12.462Z,3.10
2022-09-02T02:16:19.748Z,3.50
2022-09-02T02:26:27.052Z,4.20
2022-09-02T02:36:34.769Z,4.40
2022-09-02T02:46:41.986Z,3.10
2022-09-02T02:56:49.103Z,3.70
2022-09-02T03:06:56.117Z,4.40
2022-09-02T03:17:02.072Z,4.10
2022-09-02T03:27:09.051Z,3.50
2022-09-02T03:37:16.595Z,3.60
2022-09-02T03:47:24.413Z,3.50
2022-09-02T03:57:32.156Z,3.80
2022-09-02T04:07:41.669Z,3.60
2022-09-02T04:17:49.803Z,3.50
2022-09-02T04:27:56.833Z,4.20
2022-09-02T04:38:04.225Z,4.90
2022-09-02T04:48:11.302Z,4.40
2022-09-02T04:58:18.438Z,12.70
2022-09-02T05:08:25.525Z,24.20
2022-09-02T05:18:32.867Z,7.10
2022-09-02T05:28:41.360Z,5.30
2022-09-02T05:38:49.177Z,4.00
2022-09-02T05:49:15.514Z,3.40
2022-09-02T05:59:22.610Z,3.80
2022-09-02T06:09:29.547Z,4.50
2022-09-02T06:19:37.634Z,4.20
2022-09-02T06:29:46.196Z,4.30
2022-09-02T06:39:53.137Z,5.20
2022-09-02T06:50:03.417Z,5.70
2022-09-02T07:00:13.062Z,4.60
2022-09-02T07:10:20.301Z,2.70
2022-09-02T07:20:28.036Z,2.70
2022-09-02T07:30:35.653Z,2.00
2022-09-02T07:40:44.134Z,1.30
2022-09-02T07:50:51.942Z,2.20
2022-09-02T08:00:59.122Z,1.50
2022-09-02T08:11:06.601Z,1.70
2022-09-02T08:21:13.178Z,0.80
2022-09-02T08:31:20.667Z,1.30
2022-09-02T08:41:32.288Z,1.10
2022-09-02T08:51:41.956Z,0.80
2022-09-02T09:01:50.590Z,1.10
2022-09-02T09:11:55.957Z,0.50
2022-09-02T09:22:03.737Z,0.50
2022-09-02T09:32:23.083Z,0.30
2022-09-02T09:42:34.649Z,0.50
2022-09-02T09:52:43.542Z,0.50
2022-09-02T10:02:51.279Z,0.70
2022-09-02T10:12:57.742Z,0.60
2022-09-02T10:23:13.265Z,0.90
2022-09-02T10:33:33.023Z,0.80
2022-09-02T10:43:44.097Z,0.80
2022-09-02T10:53:57.006Z,0.70
2022-09-02T11:04:25.027Z,0.60
2022-09-02T11:14:30.786Z,0.50
2022-09-02T11:24:46.723Z,0.50
2022-09-02T11:34:57.253Z,0.40
2022-09-02T11:45:29.588Z,0.90
2022-09-02T11:55:34.199Z,0.90
2022-09-02T12:05:52.051Z,0.70
2022-09-02T12:26:20.533Z,0.70
2022-09-02T12:36:48.312Z,0.80
2022-09-02T12:57:05.856Z,0.90
2022-09-02T13:07:33.446Z,0.70
2022-09-02T13:28:19.913Z,0.60
2022-09-02T13:38:28.922Z,0.80
2022-09-02T13:48:41.145Z,0.70
2022-09-02T13:58:53.129Z,0.50
2022-09-02T14:09:02.717Z,0.90
2022-09-02T14:19:08.526Z,0.80
2022-09-02T14:29:16.420Z,0.60
2022-09-02T14:39:23.518Z,0.50
2022-09-02T14:49:31.289Z,1.20
2022-09-02T14:59:38.272Z,0.80
2022-09-02T15:09:46.307Z,0.70
2022-09-02T15:19:53.473Z,1.00
2022-09-02T15:30:00.897Z,2.30
2022-09-02T15:40:05.550Z,1.50
2022-09-02T15:50:14.308Z,4.40
2022-09-02T16:00:20.317Z,1.30
2022-09-02T16:10:27.473Z,1.10
2022-09-02T16:20:34.767Z,0.80
2022-09-02T16:30:46.259Z,0.80
2022-09-02T16:40:58.781Z,1.70
2022-09-02T16:51:07.067Z,2.50
2022-09-02T17:01:12.456Z,13.60
2022-09-02T17:11:19.905Z,3.50
2022-09-02T17:21:25.439Z,2.10
2022-09-02T17:31:33.394Z,2.80
2022-09-02T17:41:57.989Z,5.70
2022-09-02T17:52:07.778Z,8.10
2022-09-02T18:02:41.179Z,8.50
2022-09-02T18:12:48.275Z,7.20
2022-09-02T18:22:57.064Z,5.40
2022-09-02T18:33:16.593Z,3.20
2022-09-02T18:43:22.351Z,3.30
2022-09-02T18:53:30.153Z,3.10
2022-09-02T19:03:37.978Z,4.10
2022-09-02T19:13:47.069Z,2.90
2022-09-02T19:23:54.293Z,2.70
2022-09-02T19:34:05.046Z,2.20
2022-09-02T19:44:15.577Z,2.50
2022-09-02T19:54:23.029Z,2.30
2022-09-02T20:04:30.062Z,2.20
2022-09-02T20:14:36.975Z,2.40
2022-09-02T20:24:43.290Z,2.40
2022-09-02T20:34:53.553Z,3.10
2022-09-02T20:44:59.563Z,3.80
2022-09-02T20:55:13.344Z,3.40
2022-09-02T21:05:25.131Z,2.90
2022-09-02T21:15:36.666Z,3.50
2022-09-02T21:25:44.645Z,1.90
2022-09-02T21:35:54.590Z,1.80
2022-09-02T21:46:00.090Z,1.80
2022-09-02T21:56:07.431Z,1.30
2022-09-02T22:06:13.618Z,1.80
2022-09-02T22:16:21.386Z,1.70
2022-09-02T22:26:31.911Z,1.80
2022-09-02T22:36:49.168Z,1.80
2022-09-02T22:47:11.488Z,1.80
2022-09-02T22:57:16.764Z,1.60
2022-09-02T23:07:24.384Z,1.70
2022-09-02T23:17:33.755Z,1.80
2022-09-02T23:37:53.003Z,2.10
2022-09-02T23:48:27.125Z,3.70
2022-09-02T23:58:43.628Z,2.90
